Time,TemperatureF,DewpointF,PressureIn,WindDirection,WindDirectionDegrees,WindSpeedMPH,WindSpeedGustMPH,Humidity,HourlyPrecipIn,Conditions,Clouds,dailyrainin,SoftwareType,DateUTC
2013-04-14 00:01:00,44.0,41.0,30.11,WNW,303,11.0,15.0,89,0.00,,,0.02,,2013-04-14 07:01:00,
2013-04-14 00:11:00,44.0,41.0,30.11,WNW,303,11.0,15.0,89,0.00,,,0.02,,2013-04-14 07:11:00,
2013-04-14 00:21:00,45.0,42.0,30.11,West,275,6.0,14.0,89,0.00,,,0.02,,2013-04-14 07:21:00,
2013-04-14 00:31:00,45.0,41.0,30.11,West,280,12.0,16.0,87,0.00,,,0.02,,2013-04-14 07:31:00,
2013-04-14 00:41:00,45.0,41.0,30.11,West,280,12.0,16.0,87,0.00,,,0.02,,2013-04-14 07:41:00,
2013-04-14 00:52:00,45.0,41.0,30.11,WSW,250,7.0,15.0,86,0.00,,,0.02,,2013-04-14 07:52:00,
2013-04-14 01:01:00,45.0,41.0,30.11,NW,326,6.0,11.0,85,0.00,,,0.02,,2013-04-14 08:01:00,
2013-04-14 01:11:00,45.0,41.0,30.11,NW,326,6.0,11.0,85,0.00,,,0.02,,2013-04-14 08:11:00,
2013-04-14 01:21:00,44.0,39.0,30.11,WNW,299,7.0,10.0,83,0.00,,,0.02,,2013-04-14 08:21:00,
2013-04-14 01:31:00,45.0,40.0,30.11,WNW,298,10.0,14.0,83,0.00,,,0.02,,2013-04-14 08:31:00,
2013-04-14 01:41:00,45.0,40.0,30.11,WNW,298,10.0,14.0,83,0.00,,,0.02,,2013-04-14 08:41:00,
2013-04-14 01:52:00,44.0,39.0,30.11,NW,305,9.0,14.0,82,0.00,,,0.02,,2013-04-14 08:52:00,
2013-04-14 02:02:00,45.0,40.0,30.10,West,277,11.0,13.0,83,0.00,,,0.02,,2013-04-14 09:02:00,
2013-04-14 02:11:00,45.0,40.0,30.10,West,277,11.0,13.0,83,0.00,,,0.02,,2013-04-14 09:11:00,
2013-04-14 02:32:00,45.0,41.0,30.09,NW,319,4.0,13.0,85,0.00,,,0.02,,2013-04-14 09:32:00,
2013-04-14 02:42:00,45.0,41.0,30.09,NW,319,4.0,13.0,85,0.00,,,0.02,,2013-04-14 09:42:00,
2013-04-14 02:53:00,44.0,39.0,30.08,NW,326,9.0,12.0,82,0.00,,,0.02,,2013-04-14 09:53:00,
2013-04-14 03:02:00,43.0,36.0,30.08,WNW,296,0.0,8.0,75,0.00,,,0.02,,2013-04-14 10:02:00,
2013-04-14 03:12:00,43.0,36.0,30.08,WNW,296,0.0,8.0,75,0.00,,,0.02,,2013-04-14 10:12:00,
2013-04-14 03:22:00,44.0,35.0,30.08,West,263,0.0,8.0,70,0.01,,,0.02,,2013-04-14 10:22:00,
2013-04-14 03:32:00,44.0,38.0,30.08,North,0,0.0,5.0,78,0.01,,,0.02,,2013-04-14 10:32:00,
2013-04-14 03:42:00,44.0,38.0,30.08,North,0,0.0,5.0,78,0.01,,,0.02,,2013-04-14 10:42:00,
2013-04-14 03:52:00,44.0,37.0,30.08,South,186,0.0,6.0,76,0.01,,,0.02,,2013-04-14 10:52:00,
2013-04-14 04:02:00,44.0,38.0,30.07,North,0,0.0,0.0,79,0.01,,,0.03,,2013-04-14 11:02:00,
2013-04-14 04:11:00,44.0,38.0,30.07,North,0,0.0,0.0,79,0.01,,,0.03,,2013-04-14 11:11:00,
2013-04-14 04:22:00,44.0,39.0,30.06,North,0,0.0,0.0,83,0.00,,,0.03,,2013-04-14 11:22:00,
2013-04-14 04:32:00,44.0,39.0,30.06,SW,225,5.0,8.0,84,0.00,,,0.03,,2013-04-14 11:32:00,
2013-04-14 04:42:00,44.0,39.0,30.06,SW,225,5.0,8.0,84,0.00,,,0.03,,2013-04-14 11:42:00,
2013-04-14 04:52:00,44.0,41.0,30.05,SW,232,6.0,7.0,88,0.00,,,0.03,,2013-04-14 11:52:00,
2013-04-14 05:01:00,44.0,41.0,30.05,SSW,200,8.0,11.0,90,0.00,,,0.03,,2013-04-14 12:01:00,
2013-04-14 05:11:00,44.0,41.0,30.05,SSW,200,8.0,11.0,90,0.00,,,0.03,,2013-04-14 12:11:00,
2013-04-14 05:21:00,44.0,41.0,30.05,SSW,212,7.0,10.0,89,0.00,,,0.03,,2013-04-14 12:21:00,
2013-04-14 05:32:00,44.0,42.0,30.06,West,266,7.0,11.0,91,0.00,,,0.03,,2013-04-14 12:32:00,
2013-04-14 05:42:00,44.0,42.0,30.06,West,266,7.0,11.0,91,0.00,,,0.03,,2013-04-14 12:42:00,
2013-04-14 05:52:00,44.0,41.0,30.05,SW,218,6.0,11.0,90,0.00,,,0.03,,2013-04-14 12:52:00,
2013-04-14 06:01:00,44.0,41.0,30.05,SW,236,6.0,9.0,89,0.00,,,0.03,,2013-04-14 13:01:00,
2013-04-14 06:11:00,44.0,41.0,30.05,SW,236,6.0,9.0,89,0.00,,,0.03,,2013-04-14 13:11:00,
2013-04-14 06:22:00,44.0,41.0,30.05,WSW,238,6.0,11.0,89,0.00,,,0.03,,2013-04-14 13:22:00,
2013-04-14 06:32:00,45.0,42.0,30.04,SW,236,6.0,10.0,88,0.00,,,0.03,,2013-04-14 13:32:00,
2013-04-14 06:41:00,45.0,42.0,30.04,SW,236,6.0,10.0,88,0.00,,,0.03,,2013-04-14 13:41:00,
2013-04-14 06:52:00,45.0,41.0,30.04,SW,225,0.0,8.0,87,0.00,,,0.03,,2013-04-14 13:52:00,
2013-04-14 07:01:00,44.0,40.0,30.04,ESE,106,8.0,10.0,85,0.00,,,0.03,,2013-04-14 14:01:00,
2013-04-14 07:11:00,44.0,40.0,30.03,ESE,102,7.0,10.0,86,0.00,,,0.03,,2013-04-14 14:11:00,
2013-04-14 07:21:00,44.0,40.0,30.03,ESE,102,7.0,10.0,86,0.00,,,0.03,,2013-04-14 14:21:00,
2013-04-14 07:41:00,44.0,38.0,30.03,ESE,110,6.0,7.0,78,0.00,,,0.03,,2013-04-14 14:41:00,
2013-04-14 07:52:00,44.0,39.0,30.03,North,0,0.0,4.0,81,0.00,,,0.03,,2013-04-14 14:52:00,
2013-04-14 08:01:00,44.0,39.0,30.03,North,0,0.0,4.0,84,0.00,,,0.03,,2013-04-14 15:01:00,
2013-04-14 08:11:00,44.0,39.0,30.03,North,0,0.0,4.0,84,0.00,,,0.03,,2013-04-14 15:11:00,
2013-04-14 08:22:00,44.0,40.0,30.02,North,0,0.0,0.0,87,0.00,,,0.03,,2013-04-14 15:22:00,
2013-04-14 08:32:00,44.0,41.0,30.02,North,0,1.0,1.0,88,0.00,,,0.03,,2013-04-14 15:32:00,
2013-04-14 08:42:00,44.0,41.0,30.02,North,0,1.0,1.0,88,0.00,,,0.03,,2013-04-14 15:42:00,
2013-04-14 08:53:00,44.0,42.0,30.02,ESE,106,8.0,9.0,91,0.00,,,0.03,,2013-04-14 15:53:00,
2013-04-14 09:03:00,45.0,42.0,30.01,East,100,7.0,9.0,90,0.00,,,0.02,,2013-04-14 16:03:00,
2013-04-14 09:12:00,45.0,42.0,30.01,East,100,7.0,9.0,90,0.00,,,0.02,,2013-04-14 16:12:00,
2013-04-14 09:22:00,45.0,42.0,30.02,SE,128,8.0,9.0,89,0.00,,,0.02,,2013-04-14 16:22:00,
2013-04-14 09:32:00,45.0,42.0,30.02,ESE,114,5.0,10.0,89,0.00,,,0.02,,2013-04-14 16:32:00,
2013-04-14 09:42:00,45.0,42.0,30.02,ESE,114,5.0,10.0,89,0.00,,,0.02,,2013-04-14 16:42:00,
2013-04-14 09:53:00,46.0,43.0,30.02,SE,141,6.0,7.0,89,0.00,,,0.02,,2013-04-14 16:53:00,
2013-04-14 10:01:00,46.0,44.0,30.01,North,0,0.0,3.0,91,0.00,,,0.02,,2013-04-14 17:01:00,
2013-04-14 10:11:00,46.0,44.0,30.01,North,0,0.0,3.0,91,0.00,,,0.02,,2013-04-14 17:11:00,
2013-04-14 10:22:00,45.0,40.0,30.01,SSW,201,3.0,7.0,82,0.00,,,0.02,,2013-04-14 17:22:00,
2013-04-14 10:32:00,45.0,38.0,30.02,SSE,152,5.0,10.0,77,0.00,,,0.02,,2013-04-14 17:32:00,
2013-04-14 10:41:00,45.0,38.0,30.02,SSE,152,5.0,10.0,77,0.00,,,0.02,,2013-04-14 17:41:00,
2013-04-14 10:52:00,44.0,38.0,30.01,North,0,0.0,8.0,79,0.00,,,0.02,,2013-04-14 17:52:00,
2013-04-14 11:02:00,44.0,40.0,30.00,North,0,0.0,0.0,87,0.00,,,0.02,,2013-04-14 18:02:00,
2013-04-14 11:11:00,44.0,40.0,30.00,North,0,0.0,0.0,87,0.00,,,0.02,,2013-04-14 18:11:00,
2013-04-14 11:21:00,45.0,43.0,30.01,SE,124,0.0,5.0,91,0.00,,,0.02,,2013-04-14 18:21:00,
2013-04-14 11:32:00,46.0,43.0,30.01,SE,135,5.0,7.0,90,0.00,,,0.02,,2013-04-14 18:32:00,
2013-04-14 11:42:00,46.0,43.0,30.01,SE,135,5.0,7.0,90,0.00,,,0.02,,2013-04-14 18:42:00,
2013-04-14 11:53:00,46.0,43.0,30.01,South,189,5.0,7.0,89,0.00,,,0.02,,2013-04-14 18:53:00,
2013-04-14 12:02:00,46.0,42.0,30.01,North,0,0.0,5.0,86,0.00,,,0.02,,2013-04-14 19:02:00,
2013-04-14 12:11:00,46.0,42.0,30.01,North,0,0.0,5.0,86,0.00,,,0.02,,2013-04-14 19:11:00,
2013-04-14 12:22:00,46.0,42.0,30.01,SW,236,0.0,5.0,86,0.00,,,0.03,,2013-04-14 19:22:00,
2013-04-14 12:32:00,45.0,40.0,30.00,SW,232,3.0,10.0,84,0.01,,,0.03,,2013-04-14 19:32:00,
2013-04-14 12:42:00,45.0,40.0,30.00,SW,232,3.0,10.0,84,0.01,,,0.03,,2013-04-14 19:42:00,
2013-04-14 12:52:00,46.0,42.0,30.00,South,170,1.0,10.0,85,0.01,,,0.03,,2013-04-14 19:52:00,
2013-04-14 13:02:00,47.0,44.0,30.01,SSE,149,7.0,12.0,89,0.01,,,0.03,,2013-04-14 20:02:00,
2013-04-14 13:21:00,47.0,43.0,30.01,South,169,3.0,9.0,86,0.01,,,0.03,,2013-04-14 20:21:00,
2013-04-14 13:31:00,46.0,41.0,30.00,SW,225,8.0,12.0,83,0.00,,,0.03,,2013-04-14 20:31:00,
2013-04-14 13:42:00,46.0,41.0,30.00,SW,225,8.0,12.0,83,0.00,,,0.03,,2013-04-14 20:42:00,
2013-04-14 13:52:00,46.0,40.0,29.99,SW,222,6.0,10.0,80,0.00,,,0.03,,2013-04-14 20:52:00,
2013-04-14 14:01:00,45.0,40.0,29.99,WSW,238,0.0,9.0,83,0.00,,,0.03,,2013-04-14 21:01:00,
2013-04-14 14:11:00,45.0,40.0,29.99,WSW,238,0.0,9.0,83,0.00,,,0.03,,2013-04-14 21:11:00,
2013-04-14 14:22:00,46.0,41.0,29.99,West,259,0.0,7.0,84,0.00,,,0.03,,2013-04-14 21:22:00,
2013-04-14 14:32:00,47.0,43.0,30.00,SSE,163,0.0,9.0,85,0.00,,,0.03,,2013-04-14 21:32:00,
2013-04-14 14:42:00,47.0,43.0,30.00,SSE,163,0.0,9.0,85,0.00,,,0.03,,2013-04-14 21:42:00,
2013-04-14 14:53:00,46.0,40.0,29.99,WSW,254,7.0,11.0,80,0.00,,,0.03,,2013-04-14 21:53:00,
2013-04-14 15:02:00,46.0,40.0,30.00,WSW,239,4.0,11.0,79,0.00,,,0.03,,2013-04-14 22:02:00,
2013-04-14 15:12:00,46.0,40.0,30.00,WSW,239,4.0,11.0,79,0.00,,,0.03,,2013-04-14 22:12:00,
2013-04-14 15:22:00,46.0,39.0,29.99,WSW,253,8.0,12.0,75,0.00,,,0.03,,2013-04-14 22:22:00,
2013-04-14 15:32:00,47.0,39.0,29.98,West,264,8.0,12.0,73,0.00,,,0.03,,2013-04-14 22:32:00,
2013-04-14 15:44:00,47.0,39.0,29.98,West,264,8.0,12.0,73,0.00,,,0.03,,2013-04-14 22:44:00,
2013-04-14 15:52:00,48.0,39.0,29.97,WNW,303,2.0,11.0,71,0.00,,,0.03,,2013-04-14 22:52:00,
2013-04-14 16:01:00,48.0,37.0,29.96,WNW,285,6.0,14.0,66,0.00,,,0.03,,2013-04-14 23:01:00,
2013-04-14 16:12:00,49.0,38.0,29.96,West,275,8.0,13.0,65,0.00,,,0.03,,2013-04-14 23:12:00,
2013-04-14 16:22:00,49.0,38.0,29.96,West,275,8.0,13.0,65,0.00,,,0.03,,2013-04-14 23:22:00,
2013-04-14 16:32:00,49.0,37.0,29.95,WNW,301,10.0,13.0,63,0.00,,,0.03,,2013-04-14 23:32:00,
2013-04-14 16:52:00,47.0,36.0,29.96,NW,308,9.0,12.0,66,0.00,,,0.03,,2013-04-14 23:52:00,
2013-04-14 17:01:00,48.0,36.0,29.95,WNW,292,9.0,11.0,64,0.00,,,0.03,,2013-04-15 00:01:00,
2013-04-14 17:11:00,48.0,36.0,29.95,WNW,292,9.0,11.0,64,0.00,,,0.03,,2013-04-15 00:11:00,
2013-04-14 17:22:00,49.0,37.0,29.95,NW,306,9.0,13.0,63,0.00,,,0.03,,2013-04-15 00:22:00,
2013-04-14 17:32:00,49.0,37.0,29.95,WNW,303,8.0,12.0,62,0.00,,,0.03,,2013-04-15 00:32:00,
2013-04-14 17:41:00,49.0,36.0,29.95,WNW,294,10.0,12.0,61,0.00,,,0.03,,2013-04-15 00:41:00,
2013-04-14 17:52:00,49.0,36.0,29.95,WNW,294,10.0,12.0,61,0.00,,,0.03,,2013-04-15 00:52:00,
2013-04-14 18:02:00,47.0,35.0,29.94,WNW,294,8.0,11.0,63,0.00,,,0.03,,2013-04-15 01:02:00,
2013-04-14 18:11:00,47.0,35.0,29.94,WNW,294,8.0,11.0,63,0.00,,,0.03,,2013-04-15 01:11:00,
2013-04-14 18:22:00,47.0,37.0,29.94,WNW,292,8.0,11.0,68,0.00,,,0.03,,2013-04-15 01:22:00,
2013-04-14 18:31:00,47.0,36.0,29.95,WNW,292,8.0,12.0,66,0.00,,,0.03,,2013-04-15 01:31:00,
2013-04-14 18:42:00,47.0,36.0,29.95,WNW,292,8.0,12.0,66,0.00,,,0.03,,2013-04-15 01:42:00,
2013-04-14 18:52:00,46.0,36.0,29.95,WNW,292,10.0,13.0,69,0.00,,,0.03,,2013-04-15 01:52:00,
2013-04-14 19:02:00,46.0,38.0,29.95,NW,317,7.0,17.0,74,0.00,,,0.03,,2013-04-15 02:02:00,
2013-04-14 19:11:00,46.0,38.0,29.95,NW,317,7.0,17.0,74,0.00,,,0.03,,2013-04-15 02:11:00,
2013-04-14 19:21:00,46.0,38.0,29.95,NW,315,11.0,15.0,73,0.00,,,0.03,,2013-04-15 02:21:00,
2013-04-14 19:31:00,46.0,37.0,29.95,NNW,347,5.0,13.0,72,0.00,,,0.03,,2013-04-15 02:31:00,
2013-04-14 19:41:00,46.0,37.0,29.95,NNW,347,5.0,13.0,72,0.00,,,0.03,,2013-04-15 02:41:00,
2013-04-14 19:52:00,45.0,37.0,29.95,NW,317,8.0,13.0,73,0.00,,,0.03,,2013-04-15 02:52:00,
2013-04-14 20:01:00,45.0,39.0,29.96,NNW,343,6.0,14.0,78,0.00,,,0.03,,2013-04-15 03:01:00,
2013-04-14 20:11:00,45.0,39.0,29.96,NNW,343,6.0,14.0,78,0.00,,,0.03,,2013-04-15 03:11:00,
2013-04-14 20:21:00,45.0,38.0,29.95,NNW,329,5.0,8.0,77,0.00,,,0.03,,2013-04-15 03:21:00,
2013-04-14 20:32:00,44.0,37.0,29.96,NNW,336,7.0,12.0,75,0.00,,,0.03,,2013-04-15 03:32:00,
2013-04-14 20:42:00,44.0,37.0,29.96,NNW,336,7.0,12.0,75,0.00,,,0.03,,2013-04-15 03:42:00,
2013-04-14 20:54:00,44.0,37.0,29.96,NNW,341,8.0,13.0,75,0.00,,,0.03,,2013-04-15 03:54:00,
2013-04-14 21:02:00,43.0,36.0,29.96,NNW,347,7.0,13.0,75,0.00,,,0.03,,2013-04-15 04:02:00,
2013-04-14 21:12:00,43.0,36.0,29.96,NNW,347,7.0,13.0,75,0.00,,,0.03,,2013-04-15 04:12:00,
2013-04-14 21:22:00,44.0,37.0,29.97,North,2,7.0,10.0,75,0.00,,,0.03,,2013-04-15 04:22:00,
2013-04-14 21:32:00,43.0,35.0,29.97,NNW,338,7.0,14.0,74,0.00,,,0.03,,2013-04-15 04:32:00,
2013-04-14 21:42:00,43.0,35.0,29.97,NNW,338,7.0,14.0,74,0.00,,,0.03,,2013-04-15 04:42:00,
2013-04-14 21:52:00,43.0,35.0,29.97,North,5,8.0,12.0,74,0.00,,,0.03,,2013-04-15 04:52:00,
2013-04-14 22:02:00,43.0,36.0,29.97,North,1,8.0,13.0,75,0.00,,,0.03,,2013-04-15 05:02:00,
2013-04-14 22:12:00,43.0,36.0,29.97,North,1,8.0,13.0,75,0.00,,,0.03,,2013-04-15 05:12:00,
2013-04-14 22:22:00,44.0,36.0,29.97,NW,322,8.0,15.0,74,0.00,,,0.03,,2013-04-15 05:22:00,
2013-04-14 22:32:00,44.0,37.0,29.97,NW,322,5.0,15.0,75,0.00,,,0.03,,2013-04-15 05:32:00,
2013-04-14 22:42:00,44.0,37.0,29.97,NW,322,5.0,15.0,75,0.00,,,0.03,,2013-04-15 05:42:00,
2013-04-14 22:52:00,44.0,37.0,29.96,North,357,10.0,19.0,75,0.00,,,0.03,,2013-04-15 05:52:00,
2013-04-14 23:01:00,43.0,35.0,29.96,NNW,338,5.0,15.0,73,0.00,,,0.02,,2013-04-15 06:01:00,
2013-04-14 23:11:00,43.0,35.0,29.96,NNW,338,5.0,15.0,73,0.00,,,0.02,,2013-04-15 06:11:00,
2013-04-14 23:22:00,43.0,35.0,29.96,NW,322,6.0,11.0,73,0.00,,,0.02,,2013-04-15 06:22:00,
2013-04-14 23:32:00,43.0,36.0,29.95,North,0,9.0,10.0,75,0.00,,,0.02,,2013-04-15 06:32:00,
2013-04-14 23:42:00,43.0,36.0,29.95,North,0,9.0,10.0,75,0.00,,,0.02,,2013-04-15 06:42:00,
2013-04-14 23:52:00,43.0,36.0,29.96,NNE,14,8.0,13.0,75,0.00,,,0.02,,2013-04-15 06:52:00,